Time;durP1;ratioP1;P1;durP2;ratioP2;P2;SDS_P1;SDS_P2;PMS_P1;PMS_P2;Temp;Humidity;BMP_temperature;BMP_pressure;BME280_temperature;BME280_humidity;BME280_pressure;Samples;Min_cycle;Max_cycle;Signal;HPM_P1;HPM_P2
2022/08/09 00:00:37;;;;;;;1.63;0.60;;;10.10;99.90;;;;;;5013254;28;20141;-78
2022/08/09 00:03:05;;;;;;;1.85;0.40;;;10.20;99.90;;;;;;5013164;28;20108;-77
2022/08/09 00:05:33;;;;;;;0.57;0.50;;;10.20;99.90;;;;;;5013240;28;20046;-78
2022/08/09 00:08:00;;;;;;;0.47;0.40;;;10.20;99.90;;;;;;5013289;28;20022;-78
2022/08/09 00:10:28;;;;;;;2.22;0.40;;;10.30;99.90;;;;;;5013149;28;20030;-79
2022/08/09 00:12:56;;;;;;;4.15;0.50;;;10.40;99.90;;;;;;5012679;28;20060;-79
2022/08/09 00:15:23;;;;;;;1.25;0.55;;;10.50;99.90;;;;;;5013179;28;20497;-79
2022/08/09 00:17:51;;;;;;;1.45;0.43;;;10.60;99.90;;;;;;5013090;28;20018;-79
2022/08/09 00:20:20;;;;;;;1.75;0.30;;;10.70;99.90;;;;;;5013046;28;20077;-79
2022/08/09 00:22:47;;;;;;;0.50;0.47;;;10.70;99.90;;;;;;5014727;28;20018;-79
2022/08/09 00:25:15;;;;;;;2.38;0.65;;;10.80;99.90;;;;;;5016586;28;20072;-79
2022/08/09 00:27:43;;;;;;;0.70;0.40;;;10.90;99.90;;;;;;5016400;28;20356;-79
2022/08/09 00:30:12;;;;;;;0.68;0.40;;;11.00;99.90;;;;;;5016621;28;20034;-77
2022/08/09 00:32:40;;;;;;;3.75;0.60;;;10.90;99.90;;;;;;5016237;28;20030;-79
2022/08/09 00:35:08;;;;;;;0.80;0.50;;;11.00;99.90;;;;;;5016529;28;20414;-78
2022/08/09 00:37:36;;;;;;;3.65;1.75;;;11.00;99.90;;;;;;5016440;28;20113;-79
2022/08/09 00:40:04;;;;;;;0.80;0.60;;;11.10;99.90;;;;;;5016516;28;20065;-79
2022/08/09 00:42:31;;;;;;;3.30;2.75;;;11.10;99.90;;;;;;5016374;28;20018;-79
2022/08/09 00:44:59;;;;;;;2.60;1.67;;;11.10;99.90;;;;;;5016183;28;20084;-79
2022/08/09 00:47:27;;;;;;;1.77;0.70;;;11.10;99.90;;;;;;5016119;28;20026;-79
2022/08/09 00:49:55;;;;;;;1.73;0.80;;;11.20;99.90;;;;;;5016328;28;20022;-79
2022/08/09 00:52:24;;;;;;;1.65;0.55;;;11.20;99.90;;;;;;5016077;28;20475;-77
2022/08/09 00:54:52;;;;;;;0.85;0.50;;;11.30;99.90;;;;;;5015978;28;20047;-79
2022/08/09 00:57:20;;;;;;;1.42;1.02;;;11.30;99.90;;;;;;5016102;28;20378;-79
2022/08/09 00:59:48;;;;;;;3.75;1.25;;;11.30;99.90;;;;;;5016045;28;20025;-79
2022/08/09 01:02:23;;;;;;;0.60;0.50;;;11.30;99.90;;;;;;5016103;28;20018;-78
2022/08/09 01:05:15;;;;;;;4.00;0.80;;;11.30;99.90;;;;;;5016100;28;20033;-79
2022/08/09 01:08:31;;;;;;;2.15;0.77;;;11.30;99.90;;;;;;5015805;28;20490;-78
2022/08/09 01:11:28;;;;;;;1.55;0.38;;;11.30;99.90;;;;;;4936053;29;20600;-78
2022/08/09 01:14:06;;;;;;;1.40;0.63;;;11.30;99.90;;;;;;4988083;28;20053;-79
2022/08/09 01:16:41;;;;;;;1.55;0.88;;;11.40;99.90;;;;;;5015792;28;20432;-78
2022/08/09 01:19:20;;;;;;;1.45;0.43;;;11.50;99.90;;;;;;5015574;28;20029;-79
2022/08/09 01:22:26;;;;;;;3.40;1.30;;;11.50;99.90;;;;;;5015739;28;20382;-79
2022/08/09 01:25:12;;;;;;;1.70;0.73;;;11.50;99.90;;;;;;5015599;28;20026;-78
2022/08/09 01:27:41;;;;;;;1.38;0.85;;;11.60;99.90;;;;;;5015256;28;20034;-78
2022/08/09 01:30:10;;;;;;;1.17;0.70;;;11.60;99.90;;;;;;5015429;28;20036;-78
2022/08/09 01:32:50;;;;;;;3.05;0.60;;;11.60;99.90;;;;;;5015338;28;20014;-79
2022/08/09 01:35:24;;;;;;;4.70;1.73;;;11.50;99.90;;;;;;5015288;28;20030;-79
2022/08/09 01:37:55;;;;;;;1.45;0.55;;;11.50;99.90;;;;;;4997747;28;20051;-78
2022/08/09 01:40:26;;;;;;;1.33;0.73;;;11.60;99.90;;;;;;5015414;28;20108;-77
2022/08/09 01:42:55;;;;;;;1.45;0.50;;;11.60;99.90;;;;;;5015006;28;20382;-77
2022/08/09 01:45:23;;;;;;;0.70;0.52;;;11.60;99.90;;;;;;5015150;28;20034;-78
2022/08/09 01:47:53;;;;;;;2.78;0.40;;;11.60;99.90;;;;;;5015221;28;20022;-78
2022/08/09 01:50:23;;;;;;;0.32;0.30;;;11.70;99.90;;;;;;5015308;28;20022;-78
2022/08/09 01:52:52;;;;;;;1.05;0.40;;;11.80;99.90;;;;;;5014918;28;20022;-79
2022/08/09 01:55:26;;;;;;;3.05;0.50;;;11.90;99.90;;;;;;5014937;28;20026;-77
2022/08/09 01:57:55;;;;;;;1.48;0.52;;;12.00;99.90;;;;;;5014913;28;20391;-78
2022/08/09 02:00:24;;;;;;;2.33;0.40;;;12.10;99.90;;;;;;5014962;28;20148;-77
2022/08/09 02:02:53;;;;;;;3.33;0.50;;;12.10;99.90;;;;;;5015337;28;20018;-76
2022/08/09 02:05:22;;;;;;;1.38;0.45;;;12.20;99.90;;;;;;4997349;28;20478;-77
2022/08/09 02:07:56;;;;;;;2.63;0.77;;;12.20;99.90;;;;;;5014574;28;20172;-78
2022/08/09 02:10:28;;;;;;;1.83;0.55;;;12.10;99.90;;;;;;5007621;28;20072;-76
2022/08/09 02:13:00;;;;;;;0.50;0.20;;;12.10;99.90;;;;;;5014386;28;20144;-77
2022/08/09 02:15:31;;;;;;;3.33;0.85;;;12.10;99.90;;;;;;5014679;28;20022;-77
2022/08/09 02:18:01;;;;;;;2.20;0.60;;;12.10;99.90;;;;;;5014691;28;20036;-77
2022/08/09 02:20:31;;;;;;;0.50;0.30;;;12.10;99.90;;;;;;5014548;28;20053;-76
2022/08/09 02:23:03;;;;;;;0.70;0.30;;;12.10;99.90;;;;;;5014640;28;20029;-77
2022/08/09 02:25:37;;;;;;;1.67;0.60;;;12.20;99.90;;;;;;5014788;28;20038;-77
2022/08/09 02:28:22;;;;;;;3.45;0.32;;;12.30;99.90;;;;;;4996806;28;20364;-78
2022/08/09 02:31:04;;;;;;;2.65;0.70;;;12.40;99.90;;;;;;5014138;28;20037;-76
2022/08/09 02:33:38;;;;;;;10.90;1.10;;;12.60;99.90;;;;;;5008098;28;20022;-78
2022/08/09 02:36:09;;;;;;;3.20;0.63;;;12.80;99.90;;;;;;5014656;28;20483;-76
2022/08/09 02:38:43;;;;;;;1.83;0.75;;;12.90;99.90;;;;;;5014290;28;20080;-78
2022/08/09 02:41:15;;;;;;;1.88;0.50;;;12.90;99.90;;;;;;5013972;28;20471;-76
2022/08/09 02:43:46;;;;;;;2.25;0.50;;;12.90;99.90;;;;;;5014136;28;20037;-76
2022/08/09 02:46:16;;;;;;;2.63;1.02;;;12.90;99.90;;;;;;5013143;28;20084;-76
2022/08/09 02:48:46;;;;;;;2.97;0.70;;;13.00;99.90;;;;;;5014151;28;20029;-76
2022/08/09 02:51:17;;;;;;;1.48;0.40;;;13.00;99.90;;;;;;5014069;28;20057;-78
2022/08/09 02:53:51;;;;;;;0.95;0.45;;;13.10;99.90;;;;;;5013950;28;20030;-77
2022/08/09 02:56:20;;;;;;;4.13;1.10;;;13.10;99.90;;;;;;5006140;28;20057;-78
2022/08/09 02:58:49;;;;;;;0.68;0.30;;;13.00;99.90;;;;;;5014102;28;20050;-77
2022/08/09 03:01:19;;;;;;;1.83;0.70;;;12.90;99.90;;;;;;5013935;28;20475;-78
2022/08/09 03:03:48;;;;;;;4.68;0.85;;;12.80;99.90;;;;;;5013830;28;20367;-78
2022/08/09 03:06:16;;;;;;;2.70;0.60;;;12.80;99.90;;;;;;5013773;28;20030;-77
2022/08/09 03:08:49;;;;;;;5.82;0.90;;;12.70;99.90;;;;;;5013640;28;20424;-76
2022/08/09 03:11:20;;;;;;;2.72;0.60;;;12.80;99.90;;;;;;5013428;28;20034;-77
2022/08/09 03:13:49;;;;;;;2.95;1.13;;;12.90;99.90;;;;;;5013678;28;20034;-77
2022/08/09 03:16:20;;;;;;;1.38;0.40;;;13.10;99.90;;;;;;5013740;28;20018;-77
2022/08/09 03:18:49;;;;;;;4.55;1.23;;;13.10;99.90;;;;;;4995947;28;20382;-77
2022/08/09 03:21:19;;;;;;;2.15;0.90;;;13.20;99.90;;;;;;5013592;28;20046;-77
2022/08/09 03:23:47;;;;;;;3.45;0.90;;;13.20;99.90;;;;;;5013593;28;20383;-76
2022/08/09 03:26:19;;;;;;;3.00;0.50;;;13.20;99.90;;;;;;5013688;28;20076;-76
2022/08/09 03:28:54;;;;;;;1.48;0.70;;;13.10;99.90;;;;;;5013691;28;20026;-77
2022/08/09 03:31:22;;;;;;;2.33;0.77;;;13.10;99.90;;;;;;4995876;28;20394;-77
2022/08/09 03:33:50;;;;;;;3.78;0.60;;;13.00;99.90;;;;;;5013522;28;20026;-77
2022/08/09 03:36:18;;;;;;;3.45;0.68;;;12.90;99.90;;;;;;5013266;28;20426;-78
2022/08/09 03:38:46;;;;;;;0.73;0.73;;;13.00;99.90;;;;;;4995856;28;20379;-77
2022/08/09 03:41:15;;;;;;;2.95;0.90;;;13.10;99.90;;;;;;5013209;28;20387;-76
2022/08/09 03:43:44;;;;;;;5.15;0.88;;;13.20;99.90;;;;;;5013213;28;20041;-78
2022/08/09 03:46:11;;;;;;;2.88;0.68;;;13.30;99.90;;;;;;5013158;28;20081;-77
2022/08/09 03:48:40;;;;;;;1.48;0.93;;;13.30;99.90;;;;;;5013497;28;20026;-77
2022/08/09 03:51:09;;;;;;;0.85;0.55;;;13.40;99.90;;;;;;5013160;28;20030;-78
2022/08/09 03:53:39;;;;;;;4.30;0.70;;;13.50;99.90;;;;;;5013292;28;20493;-76
2022/08/09 03:56:07;;;;;;;1.55;0.77;;;13.50;99.90;;;;;;5013424;28;20030;-77
2022/08/09 03:58:35;;;;;;;7.13;1.20;;;13.50;99.90;;;;;;5016196;28;20022;-77
2022/08/09 04:01:04;;;;;;;1.30;0.45;;;13.50;99.90;;;;;;5017070;28;20029;-77
2022/08/09 04:03:33;;;;;;;2.30;0.75;;;13.50;99.90;;;;;;5017022;28;20157;-77
2022/08/09 04:06:02;;;;;;;1.30;0.40;;;13.40;99.90;;;;;;4999364;28;20026;-77
2022/08/09 04:08:30;;;;;;;1.23;0.50;;;13.40;99.90;;;;;;5017014;28;20022;-77
2022/08/09 04:10:58;;;;;;;2.65;0.77;;;13.50;99.90;;;;;;5016593;28;20029;-77
2022/08/09 04:13:28;;;;;;;2.72;0.60;;;13.60;99.90;;;;;;5016653;28;20050;-77
2022/08/09 04:15:56;;;;;;;1.20;1.00;;;13.70;99.90;;;;;;5016906;28;20493;-75
2022/08/09 04:18:24;;;;;;;2.85;0.60;;;13.80;99.90;;;;;;4999407;28;20025;-77
2022/08/09 04:20:51;;;;;;;1.70;0.40;;;13.90;99.90;;;;;;5016918;28;20030;-76
2022/08/09 04:23:20;;;;;;;3.67;1.23;;;13.80;99.90;;;;;;5016664;28;20022;-77
2022/08/09 04:25:50;;;;;;;1.88;0.60;;;13.70;99.90;;;;;;5016602;28;20116;-77
2022/08/09 04:28:22;;;;;;;1.77;0.95;;;13.50;99.90;;;;;;5016668;28;20416;-76
2022/08/09 04:30:49;;;;;;;1.85;1.02;;;13.30;99.90;;;;;;4997499;28;20121;-78
2022/08/09 04:33:17;;;;;;;1.85;1.15;;;13.20;99.90;;;;;;4999413;28;20076;-76
2022/08/09 04:35:45;;;;;;;4.55;0.63;;;13.20;99.90;;;;;;5016332;28;20030;-76
2022/08/09 04:38:12;;;;;;;4.35;1.27;;;13.20;99.90;;;;;;5016397;28;20462;-77
2022/08/09 04:40:52;;;;;;;1.75;0.55;;;13.30;99.90;;;;;;5016248;28;20483;-76
2022/08/09 04:43:20;;;;;;;2.05;0.55;;;13.30;99.90;;;;;;5016312;28;20536;-77
2022/08/09 04:45:48;;;;;;;1.90;0.50;;;13.40;99.90;;;;;;5016480;28;20022;-78
2022/08/09 04:48:15;;;;;;;3.75;0.90;;;13.60;99.90;;;;;;4999010;28;20057;-77
2022/08/09 04:50:43;;;;;;;1.02;0.68;;;13.70;99.90;;;;;;5016093;28;20022;-77
2022/08/09 04:53:11;;;;;;;1.67;0.70;;;13.80;99.90;;;;;;5016242;28;20498;-77
2022/08/09 04:55:39;;;;;;;1.08;0.55;;;13.80;99.90;;;;;;5016116;28;20036;-79
2022/08/09 04:58:07;;;;;;;1.95;0.60;;;13.70;99.90;;;;;;4998609;28;20021;-77
2022/08/09 05:00:35;;;;;;;2.38;0.75;;;13.60;99.90;;;;;;5016147;28;20061;-78
2022/08/09 05:03:05;;;;;;;2.88;0.40;;;13.50;99.90;;;;;;5016098;28;20014;-77
2022/08/09 05:05:32;;;;;;;2.63;0.60;;;13.50;99.90;;;;;;5015942;28;20142;-77
2022/08/09 05:08:01;;;;;;;3.50;1.25;;;13.50;99.90;;;;;;5015641;28;20076;-77
2022/08/09 05:10:28;;;;;;;1.30;0.47;;;13.50;99.90;;;;;;5015029;28;20094;-77
2022/08/09 05:12:56;;;;;;;2.15;0.40;;;13.40;99.90;;;;;;5015507;28;20085;-77
2022/08/09 05:15:25;;;;;;;1.55;0.75;;;13.30;99.90;;;;;;5015990;28;20029;-77
2022/08/09 05:17:52;;;;;;;1.45;0.65;;;13.20;99.90;;;;;;5015635;28;20540;-78
2022/08/09 05:20:20;;;;;;;1.92;0.55;;;13.20;99.90;;;;;;5015916;28;20045;-78
2022/08/09 05:22:49;;;;;;;6.10;0.90;;;13.20;99.90;;;;;;5015546;28;20498;-78
2022/08/09 05:25:17;;;;;;;2.90;0.80;;;13.10;99.90;;;;;;5015606;28;20041;-78
2022/08/09 05:27:44;;;;;;;4.85;0.60;;;13.10;99.90;;;;;;5015500;28;20018;-78
2022/08/09 05:30:12;;;;;;;1.17;0.55;;;13.00;99.90;;;;;;5015651;28;20072;-77
2022/08/09 05:32:40;;;;;;;5.50;1.05;;;12.90;99.90;;;;;;4997740;28;20022;-78
2022/08/09 05:35:08;;;;;;;1.98;0.90;;;12.90;99.90;;;;;;5015427;28;20555;-79
2022/08/09 05:37:36;;;;;;;6.13;1.30;;;12.80;99.90;;;;;;5015332;28;20390;-77
2022/08/09 05:40:08;;;;;;;2.03;0.73;;;12.80;99.90;;;;;;5015453;28;20084;-78
2022/08/09 05:42:36;;;;;;;2.83;1.30;;;12.70;99.90;;;;;;5015246;28;20113;-79
2022/08/09 05:45:04;;;;;;;1.10;0.35;;;12.70;99.90;;;;;;5015188;28;20042;-79
2022/08/09 05:47:32;;;;;;;2.00;0.95;;;12.70;99.90;;;;;;5015175;28;20379;-78
2022/08/09 05:50:00;;;;;;;6.82;1.15;;;12.80;99.90;;;;;;5015198;28;20379;-79
2022/08/09 05:52:29;;;;;;;2.47;1.02;;;12.90;99.90;;;;;;5014901;28;20017;-78
2022/08/09 05:54:56;;;;;;;1.13;0.40;;;12.90;99.90;;;;;;5014965;28;20446;-78
2022/08/09 05:57:24;;;;;;;2.95;0.65;;;12.90;99.90;;;;;;5014923;28;20025;-78
2022/08/09 05:59:52;;;;;;;2.65;0.88;;;12.90;99.90;;;;;;5014873;28;20113;-78
2022/08/09 06:02:20;;;;;;;1.50;0.55;;;12.90;99.90;;;;;;5007180;28;20038;-79
2022/08/09 06:04:47;;;;;;;1.73;0.65;;;12.90;99.90;;;;;;5014684;28;20461;-78
2022/08/09 06:07:15;;;;;;;3.83;1.08;;;12.80;99.90;;;;;;5014722;28;20386;-78
2022/08/09 06:09:43;;;;;;;1.23;0.32;;;12.70;99.90;;;;;;5014704;28;20030;-79
2022/08/09 06:12:10;;;;;;;3.15;0.50;;;12.70;99.90;;;;;;5014494;28;20053;-78
2022/08/09 06:14:38;;;;;;;2.40;0.70;;;12.60;99.90;;;;;;5014632;28;20497;-77
2022/08/09 06:17:10;;;;;;;2.35;1.02;;;12.50;99.90;;;;;;4996882;28;20542;-78
2022/08/09 06:19:38;;;;;;;4.28;1.50;;;12.50;99.90;;;;;;5014754;28;20022;-78
2022/08/09 06:22:06;;;;;;;5.43;0.57;;;12.50;99.90;;;;;;5014456;28;20014;-78
2022/08/09 06:24:34;;;;;;;1.50;0.47;;;12.50;99.90;;;;;;5014546;28;20041;-78
2022/08/09 06:27:04;;;;;;;1.63;0.40;;;12.40;99.90;;;;;;5014546;28;20018;-77
2022/08/09 06:29:32;;;;;;;1.95;0.93;;;12.40;99.90;;;;;;5014448;28;20046;-77
2022/08/09 06:32:00;;;;;;;4.35;1.05;;;12.40;99.90;;;;;;4996289;28;20045;-77
2022/08/09 06:34:31;;;;;;;2.33;0.68;;;12.30;99.90;;;;;;5014332;28;20025;-78
2022/08/09 06:37:01;;;;;;;2.47;0.60;;;12.20;99.90;;;;;;5014162;28;20026;-78
2022/08/09 06:39:30;;;;;;;5.68;0.70;;;12.20;99.90;;;;;;5014237;28;20419;-77
2022/08/09 06:41:58;;;;;;;4.20;0.70;;;12.20;99.90;;;;;;4996676;28;20022;-79
2022/08/09 06:44:26;;;;;;;1.23;0.57;;;12.20;99.90;;;;;;4996412;28;20483;-77
2022/08/09 06:46:53;;;;;;;4.38;1.00;;;12.10;99.90;;;;;;5014226;28;20021;-79
2022/08/09 06:49:22;;;;;;;1.83;0.82;;;12.10;99.90;;;;;;5014075;28;20022;-77
2022/08/09 06:51:49;;;;;;;2.28;0.70;;;12.10;99.90;;;;;;5014047;28;20037;-78
2022/08/09 06:54:17;;;;;;;3.88;1.13;;;12.00;99.90;;;;;;5014107;28;20371;-78
2022/08/09 06:56:45;;;;;;;3.78;0.75;;;12.00;99.90;;;;;;5014105;28;20026;-78
2022/08/09 06:59:15;;;;;;;3.22;0.70;;;12.00;99.90;;;;;;5014055;28;20079;-78
2022/08/09 07:01:43;;;;;;;2.60;0.80;;;12.00;99.90;;;;;;5013863;28;20101;-78
2022/08/09 07:04:11;;;;;;;1.92;1.00;;;11.90;99.90;;;;;;5013816;28;20084;-77
2022/08/09 07:06:39;;;;;;;3.13;0.70;;;11.90;99.90;;;;;;5013789;28;20026;-78
2022/08/09 07:09:06;;;;;;;5.07;1.05;;;11.90;99.90;;;;;;5014019;28;20026;-77
2022/08/09 07:11:34;;;;;;;5.57;0.57;;;11.80;99.90;;;;;;5013629;28;20042;-78
2022/08/09 07:14:02;;;;;;;3.45;1.05;;;11.80;99.90;;;;;;5014002;28;20038;-78
2022/08/09 07:16:29;;;;;;;1.00;0.45;;;11.80;99.90;;;;;;5013642;28;20029;-78
2022/08/09 07:18:57;;;;;;;3.60;1.08;;;11.80;99.90;;;;;;5013708;28;20109;-78
2022/08/09 07:21:25;;;;;;;6.82;0.73;;;11.70;99.90;;;;;;5013656;28;20037;-78
2022/08/09 07:23:52;;;;;;;1.70;0.73;;;11.70;99.90;;;;;;5013763;28;20025;-78
2022/08/09 07:26:20;;;;;;;1.90;1.13;;;11.60;99.90;;;;;;5014288;28;20030;-77
2022/08/09 07:28:48;;;;;;;1.92;0.77;;;11.60;99.90;;;;;;5013646;28;20022;-78
2022/08/09 07:31:16;;;;;;;2.85;0.80;;;11.60;99.90;;;;;;5013534;28;20064;-76
2022/08/09 07:33:44;;;;;;;1.83;0.77;;;11.50;99.90;;;;;;5019524;28;20026;-78
2022/08/09 07:36:13;;;;;;;6.00;1.25;;;11.50;99.90;;;;;;5019998;28;20034;-76
2022/08/09 07:38:41;;;;;;;3.13;0.80;;;11.50;99.90;;;;;;5020098;28;20026;-77
2022/08/09 07:41:09;;;;;;;2.78;0.70;;;11.50;99.90;;;;;;5019957;28;20022;-78
2022/08/09 07:43:37;;;;;;;2.65;0.90;;;11.50;99.90;;;;;;5019869;28;20370;-78
2022/08/09 07:46:07;;;;;;;1.95;0.57;;;11.50;99.90;;;;;;5019956;28;20026;-77
2022/08/09 07:48:42;;;;;;;0.75;0.70;;;11.50;99.90;;;;;;5020099;28;20021;-74
2022/08/09 07:51:09;;;;;;;;;;;11.40;99.90;;;;;;5002445;28;20080;-77
2022/08/09 07:53:38;;;;;;;1.15;0.57;;;11.40;99.90;;;;;;5020333;28;19999;-77
2022/08/09 07:56:08;;;;;;;3.08;0.85;;;11.40;99.90;;;;;;5019812;28;20018;-77
2022/08/09 07:58:36;;;;;;;1.38;0.73;;;11.40;99.90;;;;;;5019894;28;20026;-78
2022/08/09 08:01:06;;;;;;;2.10;0.52;;;11.30;99.90;;;;;;5019984;28;20028;-78
2022/08/09 08:03:37;;;;;;;1.83;0.73;;;11.30;99.90;;;;;;5019898;28;20114;-78
2022/08/09 08:06:05;;;;;;;1.48;0.57;;;11.20;99.90;;;;;;5002075;28;20117;-75
2022/08/09 08:08:33;;;;;;;3.58;0.88;;;11.20;99.90;;;;;;5019932;28;20101;-77
2022/08/09 08:11:01;;;;;;;2.65;1.02;;;11.20;99.90;;;;;;5019506;28;20025;-77
2022/08/09 08:13:32;;;;;;;1.80;0.68;;;11.10;99.90;;;;;;5019666;28;20050;-78
2022/08/09 08:15:59;;;;;;;1.95;0.80;;;11.10;99.90;;;;;;5019884;28;20386;-76
2022/08/09 08:18:33;;;;;;;0.93;0.75;;;11.00;99.90;;;;;;5002077;28;20034;-77
2022/08/09 08:21:01;;;;;;;0.30;0.30;;;11.00;99.90;;;;;;5020095;28;20108;-75
2022/08/09 08:23:28;;;;;;;3.22;0.60;;;11.00;99.90;;;;;;5019614;28;20386;-78
2022/08/09 08:25:56;;;;;;;2.67;0.80;;;11.00;99.90;;;;;;5019599;28;20061;-78
2022/08/09 08:28:24;;;;;;;1.38;0.55;;;10.90;99.90;;;;;;5019578;28;20022;-78
2022/08/09 08:30:52;;;;;;;1.75;0.82;;;10.90;99.90;;;;;;5019333;28;20034;-78
2022/08/09 08:33:19;;;;;;;2.05;0.40;;;10.90;99.90;;;;;;5011697;28;20022;-78
2022/08/09 08:35:47;;;;;;;2.47;1.20;;;10.80;99.90;;;;;;5019578;28;20022;-77
2022/08/09 08:38:15;;;;;;;1.42;0.63;;;10.80;99.90;;;;;;5001891;28;20033;-77
2022/08/09 08:40:43;;;;;;;1.90;0.85;;;10.80;99.90;;;;;;5019681;28;20022;-79
2022/08/09 08:43:11;;;;;;;0.82;0.52;;;10.80;99.90;;;;;;5018970;28;20389;-78
2022/08/09 08:45:54;;;;;;;1.27;0.68;;;10.80;99.90;;;;;;5016454;28;20533;-77
2022/08/09 08:48:23;;;;;;;4.03;0.93;;;10.80;99.90;;;;;;4991291;28;20402;-79
2022/08/09 08:50:51;;;;;;;1.35;0.95;;;10.80;99.90;;;;;;5016146;28;20486;-79
2022/08/09 08:53:19;;;;;;;2.55;1.17;;;10.80;99.90;;;;;;5016245;28;20026;-77
2022/08/09 08:55:47;;;;;;;1.90;0.70;;;10.80;99.90;;;;;;5016762;28;20026;-79
2022/08/09 08:58:16;;;;;;;0.98;0.57;;;10.80;99.90;;;;;;5016168;28;20140;-79
2022/08/09 09:00:44;;;;;;;1.73;0.70;;;10.80;99.90;;;;;;5016063;28;20046;-78
2022/08/09 09:03:16;;;;;;;1.15;0.95;;;10.80;99.90;;;;;;5016144;28;20018;-79
2022/08/09 09:05:44;;;;;;;1.00;0.70;;;10.80;99.90;;;;;;5015890;28;20038;-78
2022/08/09 09:08:14;;;;;;;0.75;0.63;;;10.80;99.90;;;;;;5016074;28;20044;-77
2022/08/09 09:10:43;;;;;;;1.05;0.70;;;10.80;99.90;;;;;;5015748;28;20489;-77
2022/08/09 09:13:11;;;;;;;3.17;0.82;;;10.80;99.90;;;;;;5015606;28;20506;-77
2022/08/09 09:15:39;;;;;;;3.38;0.70;;;10.80;99.90;;;;;;5015697;28;20013;-77
2022/08/09 09:18:12;;;;;;;2.13;0.80;;;10.80;99.90;;;;;;5015654;28;20033;-77
2022/08/09 09:20:42;;;;;;;2.83;0.80;;;10.80;99.90;;;;;;5015861;28;20379;-77
2022/08/09 09:23:10;;;;;;;0.63;0.45;;;10.80;99.90;;;;;;5015873;28;20030;-77
2022/08/09 09:25:40;;;;;;;0.95;0.60;;;10.80;99.90;;;;;;5015373;28;20104;-77
2022/08/09 09:28:10;;;;;;;1.48;1.05;;;10.80;99.90;;;;;;5015649;28;20026;-77
2022/08/09 09:30:56;;;;;;;2.10;1.20;;;10.80;99.90;;;;;;5015545;28;20022;-77
2022/08/09 09:33:36;;;;;;;2.95;0.70;;;10.80;99.90;;;;;;5015489;28;20084;-75
2022/08/09 09:36:10;;;;;;;1.48;0.63;;;10.80;99.90;;;;;;5015440;28;20030;-77
2022/08/09 09:38:45;;;;;;;1.77;0.90;;;10.80;99.90;;;;;;5015347;28;20033;-77
2022/08/09 09:41:34;;;;;;;0.55;0.50;;;10.80;99.90;;;;;;5015319;28;20064;-77
2022/08/09 09:44:08;;;;;;;1.40;0.60;;;10.80;99.90;;;;;;5008625;28;20037;-77
2022/08/09 09:46:43;;;;;;;1.48;0.52;;;10.80;99.90;;;;;;5015148;28;20513;-78
2022/08/09 09:49:18;;;;;;;5.87;0.77;;;10.80;99.90;;;;;;5015299;28;20033;-79
2022/08/09 09:51:45;;;;;;;1.45;0.70;;;10.70;99.90;;;;;;5014970;28;20537;-78
2022/08/09 09:54:19;;;;;;;0.45;0.40;;;10.70;99.90;;;;;;5015227;28;20021;-79
2022/08/09 09:56:49;;;;;;;0.35;0.30;;;10.70;99.90;;;;;;5014492;28;20030;-77
2022/08/09 09:59:36;;;;;;;2.05;0.60;;;10.70;99.90;;;;;;5015043;28;20536;-78
2022/08/09 10:02:05;;;;;;;1.10;0.60;;;10.70;99.90;;;;;;5015048;28;20064;-78
2022/08/09 10:04:33;;;;;;;0.73;0.50;;;10.70;99.90;;;;;;5014984;28;20031;-78
2022/08/09 10:07:00;;;;;;;1.23;0.80;;;10.70;99.90;;;;;;5014839;28;20032;-79
2022/08/09 10:09:45;;;;;;;1.77;0.80;;;10.70;99.90;;;;;;5014737;28;20438;-77
2022/08/09 10:12:22;;;;;;;0.98;0.65;;;10.70;99.90;;;;;;5014276;28;20137;-78
2022/08/09 10:14:50;;;;;;;2.72;0.75;;;10.70;99.90;;;;;;5015373;28;20030;-77
2022/08/09 10:17:19;;;;;;;2.50;0.80;;;10.70;99.90;;;;;;5014376;28;20026;-79
2022/08/09 10:19:47;;;;;;;1.20;0.57;;;10.60;99.90;;;;;;5014520;28;20030;-77
2022/08/09 10:22:15;;;;;;;1.63;0.50;;;10.70;99.90;;;;;;5014569;28;20076;-78
2022/08/09 10:24:43;;;;;;;1.33;0.60;;;10.70;99.90;;;;;;5014337;28;20038;-78
2022/08/09 10:27:11;;;;;;;1.45;0.70;;;10.70;99.90;;;;;;5014478;28;20030;-78
2022/08/09 10:29:39;;;;;;;4.15;1.60;;;10.70;99.90;;;;;;5014448;28;20060;-76
2022/08/09 10:32:07;;;;;;;1.15;0.50;;;10.70;99.90;;;;;;5014232;28;20033;-76
2022/08/09 10:34:36;;;;;;;1.20;0.60;;;10.70;99.90;;;;;;5014463;28;20033;-77
2022/08/09 10:37:04;;;;;;;2.95;1.23;;;10.70;99.90;;;;;;5014063;28;20032;-77
2022/08/09 10:39:32;;;;;;;2.45;0.80;;;10.60;99.90;;;;;;5014223;28;20025;-77
2022/08/09 10:41:59;;;;;;;1.35;0.98;;;10.60;99.90;;;;;;5014370;28;20029;-77
2022/08/09 10:44:29;;;;;;;3.90;1.73;;;10.60;99.90;;;;;;5013966;28;20030;-77
2022/08/09 10:47:23;;;;;;;5.82;2.20;;;10.50;99.90;;;;;;5014109;28;20033;-77
2022/08/09 10:50:05;;;;;;;6.63;3.17;;;10.50;99.90;;;;;;5011474;28;20026;-77
2022/08/09 10:52:57;;;;;;;2.85;1.10;;;10.50;99.90;;;;;;5013069;28;20021;-77
2022/08/09 10:55:27;;;;;;;3.53;1.00;;;10.40;99.90;;;;;;4981745;28;20037;-77
2022/08/09 10:57:56;;;;;;;3.58;1.90;;;10.30;99.90;;;;;;4997080;28;20494;-77
2022/08/09 11:00:42;;;;;;;2.13;1.08;;;10.30;99.90;;;;;;4993728;28;20030;-77
2022/08/09 11:03:22;;;;;;;1.98;1.02;;;10.30;99.90;;;;;;4994895;28;20060;-77
2022/08/09 11:06:18;;;;;;;1.50;1.10;;;10.20;99.90;;;;;;4993498;28;20034;-77
2022/08/09 11:08:48;;;;;;;1.55;1.00;;;10.10;99.90;;;;;;4992762;28;20479;-78
2022/08/09 11:11:16;;;;;;;1.35;0.80;;;10.10;99.90;;;;;;4992883;28;20034;-78
2022/08/09 11:13:45;;;;;;;3.65;2.25;;;10.10;99.90;;;;;;4993532;28;20027;-77
2022/08/09 11:16:39;;;;;;;8.43;2.15;;;10.10;99.90;;;;;;4992238;28;20069;-78
2022/08/09 11:19:08;;;;;;;5.20;2.92;;;10.10;99.90;;;;;;4974207;28;20372;-78
2022/08/09 11:21:52;;;;;;;5.43;2.50;;;10.10;99.90;;;;;;4995272;28;20011;-78
2022/08/09 11:24:20;;;;;;;3.58;1.50;;;10.10;99.90;;;;;;4994567;28;20525;-78
2022/08/09 11:26:49;;;;;;;1.83;1.20;;;10.10;99.90;;;;;;4994982;28;20027;-77
2022/08/09 11:29:55;;;;;;;3.20;1.25;;;10.10;99.90;;;;;;4994272;28;20415;-78
2022/08/09 11:32:51;;;;;;;3.20;2.08;;;10.10;99.90;;;;;;4963304;28;20039;-78
2022/08/09 11:35:35;;;;;;;6.15;2.45;;;10.10;99.90;;;;;;4986393;28;20011;-78
2022/08/09 11:38:18;;;;;;;2.58;1.45;;;10.10;99.90;;;;;;4994451;28;20130;-76
2022/08/09 11:40:46;;;;;;;3.25;1.30;;;10.10;99.90;;;;;;5011738;28;20463;-77
2022/08/09 11:43:29;;;;;;;5.13;3.05;;;10.00;99.90;;;;;;5000336;28;20018;-77
2022/08/09 11:45:59;;;;;;;1.90;1.38;;;10.00;99.90;;;;;;4994589;28;20059;-77
2022/08/09 11:48:30;;;;;;;2.10;1.10;;;9.90;99.90;;;;;;4995735;28;20014;-77
2022/08/09 11:51:06;;;;;;;2.17;1.00;;;9.90;99.90;;;;;;4992161;28;20022;-77
2022/08/09 11:53:41;;;;;;;1.73;1.08;;;9.90;99.90;;;;;;4997641;28;20028;-79
2022/08/09 11:56:15;;;;;;;2.22;1.50;;;9.90;99.90;;;;;;4977862;28;20018;-79
2022/08/09 11:58:45;;;;;;;1.48;0.90;;;9.90;99.90;;;;;;4992926;28;20011;-78
2022/08/09 12:01:15;;;;;;;5.68;1.00;;;9.90;99.90;;;;;;4994286;28;20037;-76
2022/08/09 12:03:47;;;;;;;1.70;1.10;;;9.90;99.90;;;;;;4999869;28;20026;-75
2022/08/09 12:06:21;;;;;;;0.82;0.77;;;9.90;99.90;;;;;;4993264;28;20023;-78
2022/08/09 12:08:51;;;;;;;2.30;0.70;;;9.90;99.90;;;;;;4995651;28;20027;-76
2022/08/09 12:11:22;;;;;;;1.92;1.10;;;9.90;99.90;;;;;;4992776;28;20054;-76
2022/08/09 12:14:04;;;;;;;1.67;0.95;;;9.90;99.90;;;;;;4995045;28;20069;-77
2022/08/09 12:16:38;;;;;;;2.72;1.67;;;9.90;99.90;;;;;;4996829;28;20608;-77
2022/08/09 12:19:08;;;;;;;2.80;1.55;;;9.90;99.90;;;;;;4998785;28;20067;-77
2022/08/09 12:21:41;;;;;;;2.47;0.80;;;9.90;99.90;;;;;;4996221;28;20036;-77
2022/08/09 12:24:11;;;;;;;2.97;1.05;;;9.80;99.90;;;;;;5014964;28;20030;-77
2022/08/09 12:26:51;;;;;;;1.20;0.98;;;9.80;99.90;;;;;;5016130;28;20037;-77
2022/08/09 12:29:25;;;;;;;2.28;0.95;;;9.80;99.90;;;;;;5014229;28;20037;-76
2022/08/09 12:32:09;;;;;;;3.78;1.00;;;9.90;99.90;;;;;;5013923;28;20480;-76
2022/08/09 12:34:43;;;;;;;1.65;0.80;;;9.80;99.90;;;;;;5014323;28;20467;-76
2022/08/09 12:37:11;;;;;;;1.42;1.00;;;9.80;99.90;;;;;;4995645;28;20030;-76
2022/08/09 12:39:39;;;;;;;2.40;0.90;;;9.80;99.90;;;;;;5015848;28;20025;-78
2022/08/09 12:42:13;;;;;;;1.90;0.88;;;9.80;99.90;;;;;;5016642;28;20017;-77
2022/08/09 12:44:42;;;;;;;2.70;0.70;;;9.80;99.90;;;;;;5016391;28;20030;-78
2022/08/09 12:47:10;;;;;;;0.98;0.80;;;9.80;99.90;;;;;;5016177;28;20022;-76
2022/08/09 12:49:38;;;;;;;0.70;0.60;;;9.80;99.90;;;;;;5016403;28;20025;-78
2022/08/09 12:52:08;;;;;;;2.13;1.10;;;9.80;99.90;;;;;;5016511;28;20515;-76
2022/08/09 12:54:53;;;;;;;1.98;0.95;;;9.80;99.90;;;;;;5016232;28;20033;-78
2022/08/09 12:57:55;;;;;;;2.80;1.40;;;9.80;99.90;;;;;;5016382;28;20382;-78
2022/08/09 13:00:23;;;;;;;1.23;0.85;;;9.80;99.90;;;;;;4936508;29;20028;-76
2022/08/09 13:02:56;;;;;;;2.13;0.80;;;9.80;99.90;;;;;;4984289;28;20403;-77
2022/08/09 13:05:27;;;;;;;1.05;0.70;;;9.80;99.90;;;;;;5016022;28;20034;-77
2022/08/09 13:08:17;;;;;;;1.33;1.00;;;9.80;99.90;;;;;;5016342;28;20050;-77